sensor_id;sensor_type;location;lat;lon;timestamp;temperature;humidity
9509;DHT22;4792;50.088;8.122;2022-08-30T00:00:09;18.70;99.90
9509;DHT22;4792;50.088;8.122;2022-08-30T00:02:58;18.70;99.90
9509;DHT22;4792;50.088;8.122;2022-08-30T00:05:27;18.70;99.90
9509;DHT22;4792;50.088;8.122;2022-08-30T00:07:57;18.60;99.90
9509;DHT22;4792;50.088;8.122;2022-08-30T00:10:26;18.60;99.90
9509;DHT22;4792;50.088;8.122;2022-08-30T00:12:57;18.50;99.90
9509;DHT22;4792;50.088;8.122;2022-08-30T00:15:26;18.50;99.90
9509;DHT22;4792;50.088;8.122;2022-08-30T00:17:57;18.50;99.90
9509;DHT22;4792;50.088;8.122;2022-08-30T00:20:27;18.40;99.90
9509;DHT22;4792;50.088;8.122;2022-08-30T00:22:56;18.40;99.90
9509;DHT22;4792;50.088;8.122;2022-08-30T00:25:25;18.40;99.90
9509;DHT22;4792;50.088;8.122;2022-08-30T00:27:53;18.40;99.90
9509;DHT22;4792;50.088;8.122;2022-08-30T00:30:21;18.30;99.90
9509;DHT22;4792;50.088;8.122;2022-08-30T00:32:50;18.30;99.90
9509;DHT22;4792;50.088;8.122;2022-08-30T00:35:21;18.30;99.90
9509;DHT22;4792;50.088;8.122;2022-08-30T00:37:50;18.30;99.90
9509;DHT22;4792;50.088;8.122;2022-08-30T00:40:19;18.30;99.90
9509;DHT22;4792;50.088;8.122;2022-08-30T00:42:54;18.30;99.90
9509;DHT22;4792;50.088;8.122;2022-08-30T00:45:28;18.30;99.90
9509;DHT22;4792;50.088;8.122;2022-08-30T00:47:57;18.20;99.90
9509;DHT22;4792;50.088;8.122;2022-08-30T00:50:32;18.20;99.90
9509;DHT22;4792;50.088;8.122;2022-08-30T00:53:03;18.20;99.90
9509;DHT22;4792;50.088;8.122;2022-08-30T00:55:32;18.30;99.90
9509;DHT22;4792;50.088;8.122;2022-08-30T00:58:06;18.30;99.90
9509;DHT22;4792;50.088;8.122;2022-08-30T01:00:35;18.30;99.90
9509;DHT22;4792;50.088;8.122;2022-08-30T01:03:04;18.30;99.90
9509;DHT22;4792;50.088;8.122;2022-08-30T01:05:37;18.30;99.90
9509;DHT22;4792;50.088;8.122;2022-08-30T01:08:06;18.30;99.90
9509;DHT22;4792;50.088;8.122;2022-08-30T01:10:35;18.30;99.90
9509;DHT22;4792;50.088;8.122;2022-08-30T01:13:04;18.30;99.90
9509;DHT22;4792;50.088;8.122;2022-08-30T01:15:32;18.30;99.90
9509;DHT22;4792;50.088;8.122;2022-08-30T01:18:02;18.20;99.90
9509;DHT22;4792;50.088;8.122;2022-08-30T01:20:39;18.30;99.90
9509;DHT22;4792;50.088;8.122;2022-08-30T01:23:13;18.20;99.90
9509;DHT22;4792;50.088;8.122;2022-08-30T01:25:44;18.30;99.90
9509;DHT22;4792;50.088;8.122;2022-08-30T01:28:17;18.30;99.90
9509;DHT22;4792;50.088;8.122;2022-08-30T01:30:47;18.30;99.90
9509;DHT22;4792;50.088;8.122;2022-08-30T01:33:15;18.20;99.90
9509;DHT22;4792;50.088;8.122;2022-08-30T01:35:48;18.20;99.90
9509;DHT22;4792;50.088;8.122;2022-08-30T01:38:23;18.20;99.90
9509;DHT22;4792;50.088;8.122;2022-08-30T01:40:56;18.30;99.90
9509;DHT22;4792;50.088;8.122;2022-08-30T01:43:26;18.20;99.90
9509;DHT22;4792;50.088;8.122;2022-08-30T01:45:54;18.20;99.90
9509;DHT22;4792;50.088;8.122;2022-08-30T01:48:23;18.20;99.90
9509;DHT22;4792;50.088;8.122;2022-08-30T01:50:57;18.20;99.90
9509;DHT22;4792;50.088;8.122;2022-08-30T01:53:27;18.20;99.90
9509;DHT22;4792;50.088;8.122;2022-08-30T01:55:55;18.20;99.90
9509;DHT22;4792;50.088;8.122;2022-08-30T01:58:24;18.10;99.90
9509;DHT22;4792;50.088;8.122;2022-08-30T02:00:52;18.10;99.90
9509;DHT22;4792;50.088;8.122;2022-08-30T02:03:20;18.10;99.90
9509;DHT22;4792;50.088;8.122;2022-08-30T02:05:48;18.10;99.90
9509;DHT22;4792;50.088;8.122;2022-08-30T02:10:56;18.10;99.90
9509;DHT22;4792;50.088;8.122;2022-08-30T02:13:26;18.10;99.90
9509;DHT22;4792;50.088;8.122;2022-08-30T02:15:54;18.10;99.90
9509;DHT22;4792;50.088;8.122;2022-08-30T02:18:24;18.10;99.90
9509;DHT22;4792;50.088;8.122;2022-08-30T02:20:52;18.10;99.90
9509;DHT22;4792;50.088;8.122;2022-08-30T02:23:20;18.10;99.90
9509;DHT22;4792;50.088;8.122;2022-08-30T02:25:49;18.10;99.90
9509;DHT22;4792;50.088;8.122;2022-08-30T02:28:18;18.10;99.90
9509;DHT22;4792;50.088;8.122;2022-08-30T02:30:47;18.10;99.90
9509;DHT22;4792;50.088;8.122;2022-08-30T02:33:15;18.10;99.90
9509;DHT22;4792;50.088;8.122;2022-08-30T02:35:44;18.00;99.90
9509;DHT22;4792;50.088;8.122;2022-08-30T02:38:12;18.00;99.90
9509;DHT22;4792;50.088;8.122;2022-08-30T02:40:45;18.00;99.90
9509;DHT22;4792;50.088;8.122;2022-08-30T02:43:13;17.90;99.90
9509;DHT22;4792;50.088;8.122;2022-08-30T02:45:43;17.90;99.90
9509;DHT22;4792;50.088;8.122;2022-08-30T02:48:11;17.90;99.90
9509;DHT22;4792;50.088;8.122;2022-08-30T02:50:40;17.90;99.90
9509;DHT22;4792;50.088;8.122;2022-08-30T02:53:09;17.80;99.90
9509;DHT22;4792;50.088;8.122;2022-08-30T02:55:42;17.80;99.90
9509;DHT22;4792;50.088;8.122;2022-08-30T02:58:10;17.80;99.90
9509;DHT22;4792;50.088;8.122;2022-08-30T03:00:39;17.90;99.90
9509;DHT22;4792;50.088;8.122;2022-08-30T03:03:09;17.80;99.90
9509;DHT22;4792;50.088;8.122;2022-08-30T03:05:37;17.80;99.90
9509;DHT22;4792;50.088;8.122;2022-08-30T03:08:07;17.80;99.90
9509;DHT22;4792;50.088;8.122;2022-08-30T03:10:36;17.80;99.90
9509;DHT22;4792;50.088;8.122;2022-08-30T03:13:05;17.80;99.90
9509;DHT22;4792;50.088;8.122;2022-08-30T03:15:34;17.70;99.90
9509;DHT22;4792;50.088;8.122;2022-08-30T03:18:02;17.70;99.90
9509;DHT22;4792;50.088;8.122;2022-08-30T03:20:32;17.70;99.90
9509;DHT22;4792;50.088;8.122;2022-08-30T03:23:00;17.70;99.90
9509;DHT22;4792;50.088;8.122;2022-08-30T03:25:28;17.70;99.90
9509;DHT22;4792;50.088;8.122;2022-08-30T03:27:57;17.70;99.90
9509;DHT22;4792;50.088;8.122;2022-08-30T03:30:25;17.70;99.90
9509;DHT22;4792;50.088;8.122;2022-08-30T03:32:53;17.70;99.90
9509;DHT22;4792;50.088;8.122;2022-08-30T03:35:22;17.70;99.90
9509;DHT22;4792;50.088;8.122;2022-08-30T03:37:51;17.70;99.90
9509;DHT22;4792;50.088;8.122;2022-08-30T03:40:22;17.70;99.90
9509;DHT22;4792;50.088;8.122;2022-08-30T03:42:51;17.70;99.90
9509;DHT22;4792;50.088;8.122;2022-08-30T03:45:20;17.70;99.90
9509;DHT22;4792;50.088;8.122;2022-08-30T03:47:48;17.70;99.90
9509;DHT22;4792;50.088;8.122;2022-08-30T03:50:16;17.70;99.90
9509;DHT22;4792;50.088;8.122;2022-08-30T03:52:44;17.70;99.90
9509;DHT22;4792;50.088;8.122;2022-08-30T03:55:14;17.70;99.90
9509;DHT22;4792;50.088;8.122;2022-08-30T03:57:42;17.70;99.90
9509;DHT22;4792;50.088;8.122;2022-08-30T04:00:11;17.70;99.90
9509;DHT22;4792;50.088;8.122;2022-08-30T04:02:40;17.70;99.90
9509;DHT22;4792;50.088;8.122;2022-08-30T04:05:09;17.70;99.90
9509;DHT22;4792;50.088;8.122;2022-08-30T04:07:39;17.70;99.90
9509;DHT22;4792;50.088;8.122;2022-08-30T04:10:09;17.70;99.90
9509;DHT22;4792;50.088;8.122;2022-08-30T04:12:41;17.70;99.90
9509;DHT22;4792;50.088;8.122;2022-08-30T04:15:16;17.70;99.90
9509;DHT22;4792;50.088;8.122;2022-08-30T04:17:45;17.70;99.90
9509;DHT22;4792;50.088;8.122;2022-08-30T04:20:14;17.60;99.90
9509;DHT22;4792;50.088;8.122;2022-08-30T04:22:42;17.60;99.90
9509;DHT22;4792;50.088;8.122;2022-08-30T04:25:10;17.60;99.90
9509;DHT22;4792;50.088;8.122;2022-08-30T04:27:43;17.60;99.90
9509;DHT22;4792;50.088;8.122;2022-08-30T04:30:17;17.60;99.90
9509;DHT22;4792;50.088;8.122;2022-08-30T04:32:45;17.60;99.90
9509;DHT22;4792;50.088;8.122;2022-08-30T04:35:13;17.60;99.90
9509;DHT22;4792;50.088;8.122;2022-08-30T04:37:42;17.60;99.90
9509;DHT22;4792;50.088;8.122;2022-08-30T04:40:10;17.60;99.90
9509;DHT22;4792;50.088;8.122;2022-08-30T04:42:40;17.60;99.90
9509;DHT22;4792;50.088;8.122;2022-08-30T04:45:13;17.60;99.90
9509;DHT22;4792;50.088;8.122;2022-08-30T04:47:42;17.60;99.90
9509;DHT22;4792;50.088;8.122;2022-08-30T04:50:13;17.60;99.90
9509;DHT22;4792;50.088;8.122;2022-08-30T04:52:42;17.60;99.90
9509;DHT22;4792;50.088;8.122;2022-08-30T04:55:11;17.70;99.90
9509;DHT22;4792;50.088;8.122;2022-08-30T04:57:45;17.70;99.90
9509;DHT22;4792;50.088;8.122;2022-08-30T05:00:16;17.70;99.90
9509;DHT22;4792;50.088;8.122;2022-08-30T05:02:46;17.70;99.90
9509;DHT22;4792;50.088;8.122;2022-08-30T05:05:14;17.70;99.90
9509;DHT22;4792;50.088;8.122;2022-08-30T05:08:00;17.80;99.90
9509;DHT22;4792;50.088;8.122;2022-08-30T05:10:29;17.70;99.90
9509;DHT22;4792;50.088;8.122;2022-08-30T05:12:57;17.80;99.90
9509;DHT22;4792;50.088;8.122;2022-08-30T05:15:26;17.90;99.90
9509;DHT22;4792;50.088;8.122;2022-08-30T05:17:54;17.90;99.90
9509;DHT22;4792;50.088;8.122;2022-08-30T05:20:23;17.90;99.90
9509;DHT22;4792;50.088;8.122;2022-08-30T05:22:51;18.00;99.90
9509;DHT22;4792;50.088;8.122;2022-08-30T05:25:21;18.10;99.90
9509;DHT22;4792;50.088;8.122;2022-08-30T05:27:53;18.20;99.90
9509;DHT22;4792;50.088;8.122;2022-08-30T05:30:23;18.20;99.90
9509;DHT22;4792;50.088;8.122;2022-08-30T05:32:53;18.30;99.90
9509;DHT22;4792;50.088;8.122;2022-08-30T05:35:22;18.40;99.90
9509;DHT22;4792;50.088;8.122;2022-08-30T05:37:52;18.50;99.90
9509;DHT22;4792;50.088;8.122;2022-08-30T05:40:20;18.60;99.90
9509;DHT22;4792;50.088;8.122;2022-08-30T05:42:49;18.60;99.90
9509;DHT22;4792;50.088;8.122;2022-08-30T05:45:17;18.70;99.90
9509;DHT22;4792;50.088;8.122;2022-08-30T05:47:45;18.80;99.90
9509;DHT22;4792;50.088;8.122;2022-08-30T05:50:15;18.90;99.90
9509;DHT22;4792;50.088;8.122;2022-08-30T05:52:43;18.90;99.90
9509;DHT22;4792;50.088;8.122;2022-08-30T05:55:12;19.10;99.90
9509;DHT22;4792;50.088;8.122;2022-08-30T05:57:40;19.20;99.90
9509;DHT22;4792;50.088;8.122;2022-08-30T06:00:11;19.30;99.90
9509;DHT22;4792;50.088;8.122;2022-08-30T06:02:40;19.30;99.90
9509;DHT22;4792;50.088;8.122;2022-08-30T06:05:09;19.40;99.90
9509;DHT22;4792;50.088;8.122;2022-08-30T06:07:41;19.50;99.90
9509;DHT22;4792;50.088;8.122;2022-08-30T06:10:10;19.50;99.90
9509;DHT22;4792;50.088;8.122;2022-08-30T06:12:40;19.70;99.90
9509;DHT22;4792;50.088;8.122;2022-08-30T06:15:09;19.70;99.90
9509;DHT22;4792;50.088;8.122;2022-08-30T06:17:38;20.00;99.90
9509;DHT22;4792;50.088;8.122;2022-08-30T06:20:07;20.10;99.90
9509;DHT22;4792;50.088;8.122;2022-08-30T06:22:35;20.20;99.90
9509;DHT22;4792;50.088;8.122;2022-08-30T06:25:07;20.20;99.90
9509;DHT22;4792;50.088;8.122;2022-08-30T06:27:35;20.40;99.90
9509;DHT22;4792;50.088;8.122;2022-08-30T06:30:04;20.50;99.90
9509;DHT22;4792;50.088;8.122;2022-08-30T06:32:34;20.40;99.90
9509;DHT22;4792;50.088;8.122;2022-08-30T06:35:02;20.50;99.90
9509;DHT22;4792;50.088;8.122;2022-08-30T06:37:31;20.50;99.90
9509;DHT22;4792;50.088;8.122;2022-08-30T06:40:00;20.60;99.90
9509;DHT22;4792;50.088;8.122;2022-08-30T06:42:32;20.60;99.90
9509;DHT22;4792;50.088;8.122;2022-08-30T06:45:00;20.70;99.90
9509;DHT22;4792;50.088;8.122;2022-08-30T06:47:37;20.80;99.90
9509;DHT22;4792;50.088;8.122;2022-08-30T06:50:06;20.90;99.90
9509;DHT22;4792;50.088;8.122;2022-08-30T06:52:38;20.90;99.90
9509;DHT22;4792;50.088;8.122;2022-08-30T06:55:07;21.00;99.90
9509;DHT22;4792;50.088;8.122;2022-08-30T06:57:37;21.00;99.90
9509;DHT22;4792;50.088;8.122;2022-08-30T07:00:07;21.10;99.90
9509;DHT22;4792;50.088;8.122;2022-08-30T07:02:36;21.20;99.90
9509;DHT22;4792;50.088;8.122;2022-08-30T07:05:06;21.20;99.90
9509;DHT22;4792;50.088;8.122;2022-08-30T07:07:35;21.30;99.90
9509;DHT22;4792;50.088;8.122;2022-08-30T07:10:05;21.50;99.90
9509;DHT22;4792;50.088;8.122;2022-08-30T07:12:33;21.60;99.90
9509;DHT22;4792;50.088;8.122;2022-08-30T07:15:04;21.60;99.90
9509;DHT22;4792;50.088;8.122;2022-08-30T07:17:33;21.60;99.90
9509;DHT22;4792;50.088;8.122;2022-08-30T07:20:19;21.60;99.90
9509;DHT22;4792;50.088;8.122;2022-08-30T07:22:48;21.70;99.90
9509;DHT22;4792;50.088;8.122;2022-08-30T07:25:16;21.80;99.90
9509;DHT22;4792;50.088;8.122;2022-08-30T07:27:45;21.90;99.90
9509;DHT22;4792;50.088;8.122;2022-08-30T07:30:15;21.90;99.90
9509;DHT22;4792;50.088;8.122;2022-08-30T07:32:43;21.90;99.90
9509;DHT22;4792;50.088;8.122;2022-08-30T07:35:11;21.80;99.90
9509;DHT22;4792;50.088;8.122;2022-08-30T07:37:39;22.00;99.90
9509;DHT22;4792;50.088;8.122;2022-08-30T07:40:09;22.00;99.90
9509;DHT22;4792;50.088;8.122;2022-08-30T07:42:37;22.10;99.90
9509;DHT22;4792;50.088;8.122;2022-08-30T07:45:07;22.20;99.90
9509;DHT22;4792;50.088;8.122;2022-08-30T07:47:37;22.30;99.90
9509;DHT22;4792;50.088;8.122;2022-08-30T07:50:07;22.40;99.90
9509;DHT22;4792;50.088;8.122;2022-08-30T07:52:35;22.40;99.90
9509;DHT22;4792;50.088;8.122;2022-08-30T07:55:04;22.50;99.90
9509;DHT22;4792;50.088;8.122;2022-08-30T07:57:33;22.50;99.90
9509;DHT22;4792;50.088;8.122;2022-08-30T08:00:01;22.50;99.90
9509;DHT22;4792;50.088;8.122;2022-08-30T08:02:31;22.50;99.90
9509;DHT22;4792;50.088;8.122;2022-08-30T08:05:02;22.70;99.90
9509;DHT22;4792;50.088;8.122;2022-08-30T08:07:31;22.80;99.90
9509;DHT22;4792;50.088;8.122;2022-08-30T08:09:59;22.90;99.90
9509;DHT22;4792;50.088;8.122;2022-08-30T08:12:27;22.90;99.90
9509;DHT22;4792;50.088;8.122;2022-08-30T08:14:56;23.10;99.90
9509;DHT22;4792;50.088;8.122;2022-08-30T08:17:24;23.30;99.90
9509;DHT22;4792;50.088;8.122;2022-08-30T08:19:52;23.40;99.90
9509;DHT22;4792;50.088;8.122;2022-08-30T08:22:21;23.60;99.90
9509;DHT22;4792;50.088;8.122;2022-08-30T08:24:49;23.60;99.90
9509;DHT22;4792;50.088;8.122;2022-08-30T08:27:18;23.70;99.90
9509;DHT22;4792;50.088;8.122;2022-08-30T08:29:46;23.90;99.90
9509;DHT22;4792;50.088;8.122;2022-08-30T08:32:14;23.80;99.90
9509;DHT22;4792;50.088;8.122;2022-08-30T08:34:42;23.80;99.90
9509;DHT22;4792;50.088;8.122;2022-08-30T08:37:10;23.80;99.90
9509;DHT22;4792;50.088;8.122;2022-08-30T08:39:40;23.80;99.90
9509;DHT22;4792;50.088;8.122;2022-08-30T08:42:11;23.80;99.90
9509;DHT22;4792;50.088;8.122;2022-08-30T08:44:49;23.80;99.90
9509;DHT22;4792;50.088;8.122;2022-08-30T08:47:24;24.00;99.90
9509;DHT22;4792;50.088;8.122;2022-08-30T08:49:56;24.20;99.90
9509;DHT22;4792;50.088;8.122;2022-08-30T08:52:28;24.30;99.90
9509;DHT22;4792;50.088;8.122;2022-08-30T08:55:17;24.30;99.90
9509;DHT22;4792;50.088;8.122;2022-08-30T08:57:48;24.40;99.90
9509;DHT22;4792;50.088;8.122;2022-08-30T09:00:18;24.50;99.90
9509;DHT22;4792;50.088;8.122;2022-08-30T09:02:50;24.40;99.90
9509;DHT22;4792;50.088;8.122;2022-08-30T09:05:23;24.40;99.90
9509;DHT22;4792;50.088;8.122;2022-08-30T09:07:56;24.50;99.90
9509;DHT22;4792;50.088;8.122;2022-08-30T09:10:28;24.60;99.90
9509;DHT22;4792;50.088;8.122;2022-08-30T09:13:15;24.60;99.90
9509;DHT22;4792;50.088;8.122;2022-08-30T09:15:45;24.70;99.90
9509;DHT22;4792;50.088;8.122;2022-08-30T09:18:20;24.90;99.90
9509;DHT22;4792;50.088;8.122;2022-08-30T09:21:08;24.90;99.90
9509;DHT22;4792;50.088;8.122;2022-08-30T09:23:46;25.00;99.90
9509;DHT22;4792;50.088;8.122;2022-08-30T09:26:27;25.10;99.90
9509;DHT22;4792;50.088;8.122;2022-08-30T09:28:55;25.20;99.90
9509;DHT22;4792;50.088;8.122;2022-08-30T09:31:27;25.20;99.90
9509;DHT22;4792;50.088;8.122;2022-08-30T09:33:59;25.20;99.90
9509;DHT22;4792;50.088;8.122;2022-08-30T09:36:42;25.30;99.90
9509;DHT22;4792;50.088;8.122;2022-08-30T09:39:14;25.50;99.90
9509;DHT22;4792;50.088;8.122;2022-08-30T09:41:47;25.70;99.90
9509;DHT22;4792;50.088;8.122;2022-08-30T09:44:19;26.10;99.90
9509;DHT22;4792;50.088;8.122;2022-08-30T09:46:49;26.20;99.90
9509;DHT22;4792;50.088;8.122;2022-08-30T09:49:31;26.30;98.70
9509;DHT22;4792;50.088;8.122;2022-08-30T09:52:16;26.50;97.80
9509;DHT22;4792;50.088;8.122;2022-08-30T09:54:53;26.70;97.00
9509;DHT22;4792;50.088;8.122;2022-08-30T09:57:36;26.80;97.20
9509;DHT22;4792;50.088;8.122;2022-08-30T10:00:09;26.80;96.70
9509;DHT22;4792;50.088;8.122;2022-08-30T10:02:50;27.10;95.60
9509;DHT22;4792;50.088;8.122;2022-08-30T10:05:26;27.30;94.30
9509;DHT22;4792;50.088;8.122;2022-08-30T10:08:05;27.60;94.10
9509;DHT22;4792;50.088;8.122;2022-08-30T10:10:42;27.80;93.40
9509;DHT22;4792;50.088;8.122;2022-08-30T10:16:30;28.40;92.50
9509;DHT22;4792;50.088;8.122;2022-08-30T10:19:09;28.70;91.70
9509;DHT22;4792;50.088;8.122;2022-08-30T10:21:44;28.70;90.90
9509;DHT22;4792;50.088;8.122;2022-08-30T10:24:18;28.70;90.80
9509;DHT22;4792;50.088;8.122;2022-08-30T10:26:51;28.70;90.70
9509;DHT22;4792;50.088;8.122;2022-08-30T10:29:27;28.80;90.60
9509;DHT22;4792;50.088;8.122;2022-08-30T10:32:00;28.90;90.80
9509;DHT22;4792;50.088;8.122;2022-08-30T10:34:33;29.10;90.30
9509;DHT22;4792;50.088;8.122;2022-08-30T10:37:04;28.90;86.20
9509;DHT22;4792;50.088;8.122;2022-08-30T10:39:40;28.80;88.80
9509;DHT22;4792;50.088;8.122;2022-08-30T10:42:16;28.70;87.10
9509;DHT22;4792;50.088;8.122;2022-08-30T10:44:51;28.50;86.10
9509;DHT22;4792;50.088;8.122;2022-08-30T10:47:24;28.60;84.80
9509;DHT22;4792;50.088;8.122;2022-08-30T10:50:04;28.60;85.80
9509;DHT22;4792;50.088;8.122;2022-08-30T10:52:35;28.40;84.70
9509;DHT22;4792;50.088;8.122;2022-08-30T10:55:10;27.70;85.20
9509;DHT22;4792;50.088;8.122;2022-08-30T10:57:40;27.50;85.30
9509;DHT22;4792;50.088;8.122;2022-08-30T11:00:15;27.30;86.30
9509;DHT22;4792;50.088;8.122;2022-08-30T11:03:45;27.40;86.30
9509;DHT22;4792;50.088;8.122;2022-08-30T11:06:22;27.40;85.30
9509;DHT22;4792;50.088;8.122;2022-08-30T11:09:07;27.60;86.00
9509;DHT22;4792;50.088;8.122;2022-08-30T11:11:50;28.00;86.00
9509;DHT22;4792;50.088;8.122;2022-08-30T11:14:23;28.10;84.40
9509;DHT22;4792;50.088;8.122;2022-08-30T11:16:54;28.50;83.90
9509;DHT22;4792;50.088;8.122;2022-08-30T11:19:26;28.70;83.60
9509;DHT22;4792;50.088;8.122;2022-08-30T11:22:11;29.20;83.70
9509;DHT22;4792;50.088;8.122;2022-08-30T11:24:59;29.80;81.60
9509;DHT22;4792;50.088;8.122;2022-08-30T11:27:42;30.20;80.30
9509;DHT22;4792;50.088;8.122;2022-08-30T11:30:48;30.30;79.00
9509;DHT22;4792;50.088;8.122;2022-08-30T11:33:40;30.30;78.50
9509;DHT22;4792;50.088;8.122;2022-08-30T11:39:50;31.10;77.40
9509;DHT22;4792;50.088;8.122;2022-08-30T11:42:41;31.00;77.30
9509;DHT22;4792;50.088;8.122;2022-08-30T11:45:45;31.20;75.90
9509;DHT22;4792;50.088;8.122;2022-08-30T11:48:45;31.40;75.60
9509;DHT22;4792;50.088;8.122;2022-08-30T11:51:47;31.60;74.40
9509;DHT22;4792;50.088;8.122;2022-08-30T11:54:45;31.30;73.80
9509;DHT22;4792;50.088;8.122;2022-08-30T11:57:30;30.70;74.60
9509;DHT22;4792;50.088;8.122;2022-08-30T12:00:05;30.00;76.30
9509;DHT22;4792;50.088;8.122;2022-08-30T12:02:48;29.80;76.00
9509;DHT22;4792;50.088;8.122;2022-08-30T12:05:48;29.90;76.00
9509;DHT22;4792;50.088;8.122;2022-08-30T12:08:39;30.20;76.00
9509;DHT22;4792;50.088;8.122;2022-08-30T12:14:42;29.70;77.00
9509;DHT22;4792;50.088;8.122;2022-08-30T12:17:22;29.80;75.60
9509;DHT22;4792;50.088;8.122;2022-08-30T12:20:17;30.20;74.80
9509;DHT22;4792;50.088;8.122;2022-08-30T12:22:49;30.70;74.00
9509;DHT22;4792;50.088;8.122;2022-08-30T12:25:24;30.90;73.60
9509;DHT22;4792;50.088;8.122;2022-08-30T12:28:09;30.70;73.50
9509;DHT22;4792;50.088;8.122;2022-08-30T12:30:37;30.50;73.50
9509;DHT22;4792;50.088;8.122;2022-08-30T12:33:09;30.60;74.00
9509;DHT22;4792;50.088;8.122;2022-08-30T12:35:38;30.80;73.00
9509;DHT22;4792;50.088;8.122;2022-08-30T12:38:16;31.20;74.40
9509;DHT22;4792;50.088;8.122;2022-08-30T12:40:55;31.20;72.20
9509;DHT22;4792;50.088;8.122;2022-08-30T12:43:27;31.60;71.90
9509;DHT22;4792;50.088;8.122;2022-08-30T12:46:10;31.80;70.80
9509;DHT22;4792;50.088;8.122;2022-08-30T12:48:41;31.70;70.70
9509;DHT22;4792;50.088;8.122;2022-08-30T12:51:28;31.30;70.70
9509;DHT22;4792;50.088;8.122;2022-08-30T12:54:15;31.00;70.70
9509;DHT22;4792;50.088;8.122;2022-08-30T12:56:50;30.60;71.30
9509;DHT22;4792;50.088;8.122;2022-08-30T12:59:39;30.60;71.90
9509;DHT22;4792;50.088;8.122;2022-08-30T13:02:11;31.40;70.80
9509;DHT22;4792;50.088;8.122;2022-08-30T13:04:48;31.40;70.50
9509;DHT22;4792;50.088;8.122;2022-08-30T13:07:28;31.20;70.40
9509;DHT22;4792;50.088;8.122;2022-08-30T13:10:15;30.70;70.80
9509;DHT22;4792;50.088;8.122;2022-08-30T13:12:59;30.50;71.20
9509;DHT22;4792;50.088;8.122;2022-08-30T13:15:30;30.50;71.00
9509;DHT22;4792;50.088;8.122;2022-08-30T13:18:23;30.50;71.60
9509;DHT22;4792;50.088;8.122;2022-08-30T13:21:09;30.90;71.20
9509;DHT22;4792;50.088;8.122;2022-08-30T13:23:38;31.10;71.10
9509;DHT22;4792;50.088;8.122;2022-08-30T13:26:08;31.30;71.00
9509;DHT22;4792;50.088;8.122;2022-08-30T13:28:45;32.00;69.90
9509;DHT22;4792;50.088;8.122;2022-08-30T13:31:14;32.60;69.10
9509;DHT22;4792;50.088;8.122;2022-08-30T13:33:43;33.10;68.30
9509;DHT22;4792;50.088;8.122;2022-08-30T13:36:12;32.90;66.90
9509;DHT22;4792;50.088;8.122;2022-08-30T13:38:41;32.70;67.40
9509;DHT22;4792;50.088;8.122;2022-08-30T13:41:10;32.70;67.10
9509;DHT22;4792;50.088;8.122;2022-08-30T13:43:38;33.00;66.90
9509;DHT22;4792;50.088;8.122;2022-08-30T13:46:26;32.70;66.60
9509;DHT22;4792;50.088;8.122;2022-08-30T13:48:59;32.30;66.80
9509;DHT22;4792;50.088;8.122;2022-08-30T13:51:30;31.70;67.20
9509;DHT22;4792;50.088;8.122;2022-08-30T13:53:58;31.80;68.30
9509;DHT22;4792;50.088;8.122;2022-08-30T13:56:28;31.60;67.10
9509;DHT22;4792;50.088;8.122;2022-08-30T13:59:01;32.00;67.20
9509;DHT22;4792;50.088;8.122;2022-08-30T14:01:31;32.40;66.60
9509;DHT22;4792;50.088;8.122;2022-08-30T14:04:20;32.60;66.20
9509;DHT22;4792;50.088;8.122;2022-08-30T14:06:48;32.40;66.90
9509;DHT22;4792;50.088;8.122;2022-08-30T14:09:36;32.20;67.50
9509;DHT22;4792;50.088;8.122;2022-08-30T14:12:07;32.50;67.00
9509;DHT22;4792;50.088;8.122;2022-08-30T14:14:36;32.90;65.70
9509;DHT22;4792;50.088;8.122;2022-08-30T14:17:09;33.40;65.90
9509;DHT22;4792;50.088;8.122;2022-08-30T14:19:38;34.10;65.50
9509;DHT22;4792;50.088;8.122;2022-08-30T14:22:06;34.70;63.90
9509;DHT22;4792;50.088;8.122;2022-08-30T14:24:34;34.90;62.40
9509;DHT22;4792;50.088;8.122;2022-08-30T14:27:02;34.90;62.20
9509;DHT22;4792;50.088;8.122;2022-08-30T14:29:32;34.50;62.20
9509;DHT22;4792;50.088;8.122;2022-08-30T14:32:01;34.10;62.50
9509;DHT22;4792;50.088;8.122;2022-08-30T14:34:29;34.00;62.50
9509;DHT22;4792;50.088;8.122;2022-08-30T14:36:58;33.70;62.40
9509;DHT22;4792;50.088;8.122;2022-08-30T14:39:26;33.30;63.70
9509;DHT22;4792;50.088;8.122;2022-08-30T14:41:54;33.30;63.20
9509;DHT22;4792;50.088;8.122;2022-08-30T14:44:24;33.20;63.40
9509;DHT22;4792;50.088;8.122;2022-08-30T14:46:54;33.50;63.30
9509;DHT22;4792;50.088;8.122;2022-08-30T14:49:23;33.90;62.70
9509;DHT22;4792;50.088;8.122;2022-08-30T14:51:52;33.70;62.80
9509;DHT22;4792;50.088;8.122;2022-08-30T14:54:23;33.70;63.00
9509;DHT22;4792;50.088;8.122;2022-08-30T14:56:52;33.30;63.10
9509;DHT22;4792;50.088;8.122;2022-08-30T14:59:20;32.90;63.50
9509;DHT22;4792;50.088;8.122;2022-08-30T15:01:49;32.70;64.10
9509;DHT22;4792;50.088;8.122;2022-08-30T15:04:18;32.70;64.20
9509;DHT22;4792;50.088;8.122;2022-08-30T15:06:47;33.00;65.50
9509;DHT22;4792;50.088;8.122;2022-08-30T15:09:17;33.30;63.50
9509;DHT22;4792;50.088;8.122;2022-08-30T15:11:50;33.50;62.80
9509;DHT22;4792;50.088;8.122;2022-08-30T15:14:20;33.30;63.60
9509;DHT22;4792;50.088;8.122;2022-08-30T15:16:49;32.70;64.60
9509;DHT22;4792;50.088;8.122;2022-08-30T15:19:18;32.30;65.10
9509;DHT22;4792;50.088;8.122;2022-08-30T15:21:47;31.90;65.50
9509;DHT22;4792;50.088;8.122;2022-08-30T15:24:17;31.70;65.70
9509;DHT22;4792;50.088;8.122;2022-08-30T15:26:53;31.60;66.20
9509;DHT22;4792;50.088;8.122;2022-08-30T15:29:21;31.50;66.40
9509;DHT22;4792;50.088;8.122;2022-08-30T15:31:50;31.30;66.70
9509;DHT22;4792;50.088;8.122;2022-08-30T15:34:21;31.10;67.00
9509;DHT22;4792;50.088;8.122;2022-08-30T15:36:54;31.10;67.40
9509;DHT22;4792;50.088;8.122;2022-08-30T15:39:23;31.10;67.10
9509;DHT22;4792;50.088;8.122;2022-08-30T15:41:52;31.00;67.30
9509;DHT22;4792;50.088;8.122;2022-08-30T15:44:27;30.80;67.60
9509;DHT22;4792;50.088;8.122;2022-08-30T15:46:55;30.70;68.20
9509;DHT22;4792;50.088;8.122;2022-08-30T15:49:25;30.60;68.50
9509;DHT22;4792;50.088;8.122;2022-08-30T15:51:53;30.60;68.50
9509;DHT22;4792;50.088;8.122;2022-08-30T15:54:22;30.60;68.30
9509;DHT22;4792;50.088;8.122;2022-08-30T15:56:51;30.60;68.50
9509;DHT22;4792;50.088;8.122;2022-08-30T15:59:25;30.50;69.30
9509;DHT22;4792;50.088;8.122;2022-08-30T16:01:53;30.50;69.40
9509;DHT22;4792;50.088;8.122;2022-08-30T16:04:24;30.50;69.20
9509;DHT22;4792;50.088;8.122;2022-08-30T16:06:53;30.40;69.10
9509;DHT22;4792;50.088;8.122;2022-08-30T16:09:22;30.20;69.30
9509;DHT22;4792;50.088;8.122;2022-08-30T16:11:50;30.00;69.20
9509;DHT22;4792;50.088;8.122;2022-08-30T16:14:18;29.90;69.60
9509;DHT22;4792;50.088;8.122;2022-08-30T16:16:47;29.90;69.70
9509;DHT22;4792;50.088;8.122;2022-08-30T16:19:15;29.80;69.80
9509;DHT22;4792;50.088;8.122;2022-08-30T16:21:45;29.90;70.10
9509;DHT22;4792;50.088;8.122;2022-08-30T16:24:14;29.90;70.20
9509;DHT22;4792;50.088;8.122;2022-08-30T16:26:48;29.60;70.10
9509;DHT22;4792;50.088;8.122;2022-08-30T16:29:16;29.40;70.30
9509;DHT22;4792;50.088;8.122;2022-08-30T16:31:45;29.20;70.90
9509;DHT22;4792;50.088;8.122;2022-08-30T16:34:16;29.00;71.00
9509;DHT22;4792;50.088;8.122;2022-08-30T16:36:45;28.90;71.40
9509;DHT22;4792;50.088;8.122;2022-08-30T16:39:14;28.90;71.70
9509;DHT22;4792;50.088;8.122;2022-08-30T16:41:43;28.90;71.80
9509;DHT22;4792;50.088;8.122;2022-08-30T16:44:12;29.00;72.00
9509;DHT22;4792;50.088;8.122;2022-08-30T16:46:43;29.30;71.40